Terminal Aerodrome Forecast
Issued by NWS

Home | Current Version | Previous Version | Text Only | Print | Product List | Glossary Off
Versions: 1 2 3 4 5 6 7 8 9 10 11 12

000
FTUS43 KGRB 300520
TAFATW
TAF
KATW 300520Z 3006/3106 35009KT 6SM -RA BR BKN015
     FM300900 03011G20KT 5SM -RA BR OVC007
     FM301500 02013G22KT P6SM -SHRA BKN019
     FM301900 03014G25KT P6SM SCT022 BKN100
     FM302300 03012KT P6SM SKC=

USA.gov is the U.S. government's official web portal to all federal, state and local government web resources and services.